createdAt,value
2018-06-29T00:00:13.074Z,4.63
2018-06-29T00:02:40.886Z,4.40
2018-06-29T00:05:09.107Z,4.87
2018-06-29T00:07:36.925Z,5.17
2018-06-29T00:10:05.083Z,4.30
2018-06-29T00:12:32.877Z,4.40
2018-06-29T00:15:00.699Z,4.90
2018-06-29T00:17:28.511Z,4.37
2018-06-29T00:19:56.342Z,4.23
2018-06-29T00:22:24.148Z,4.20
2018-06-29T00:24:51.992Z,5.00
2018-06-29T00:27:19.767Z,5.27
2018-06-29T00:29:47.566Z,4.40
2018-06-29T00:32:15.403Z,4.20
2018-06-29T00:34:43.201Z,5.03
2018-06-29T00:37:11.023Z,4.23
2018-06-29T00:39:38.824Z,4.70
2018-06-29T00:42:06.654Z,4.47
2018-06-29T00:44:34.581Z,4.60
2018-06-29T00:47:02.263Z,5.03
2018-06-29T00:49:30.063Z,4.20
2018-06-29T00:51:57.875Z,4.40
2018-06-29T00:54:25.670Z,4.40
2018-06-29T00:56:53.495Z,4.50
2018-06-29T00:59:21.307Z,4.13
2018-06-29T01:01:49.119Z,4.20
2018-06-29T01:04:16.913Z,3.97
2018-06-29T01:06:44.746Z,4.07
2018-06-29T01:09:13.301Z,3.47
2018-06-29T01:11:41.113Z,3.80
2018-06-29T01:14:09.146Z,4.00
2018-06-29T01:16:37.232Z,3.90
2018-06-29T01:19:05.191Z,4.27
2018-06-29T01:21:32.995Z,3.90
2018-06-29T01:24:00.812Z,4.00
2018-06-29T01:26:31.458Z,4.30
2018-06-29T01:28:59.342Z,4.07
2018-06-29T01:31:27.145Z,4.03
2018-06-29T01:33:54.966Z,3.37
2018-06-29T01:36:22.773Z,3.87
2018-06-29T01:38:50.575Z,3.60
2018-06-29T01:41:18.442Z,3.80
2018-06-29T01:43:46.315Z,3.70
2018-06-29T01:46:14.111Z,3.33
2018-06-29T01:48:41.923Z,3.60
2018-06-29T01:51:09.726Z,3.60
2018-06-29T01:53:37.548Z,4.17
2018-06-29T01:56:05.350Z,3.93
2018-06-29T01:58:33.152Z,3.60
2018-06-29T02:01:00.959Z,4.00
2018-06-29T02:03:28.819Z,3.80
2018-06-29T02:05:56.627Z,3.50
2018-06-29T02:08:24.691Z,3.40
2018-06-29T02:10:52.515Z,3.37
2018-06-29T02:13:20.306Z,3.60
2018-06-29T02:15:48.127Z,2.90
2018-06-29T02:18:15.954Z,3.20
2018-06-29T02:20:43.771Z,3.63
2018-06-29T02:23:11.634Z,3.47
2018-06-29T02:25:39.583Z,4.30
2018-06-29T02:28:07.534Z,3.37
2018-06-29T02:30:35.384Z,3.47
2018-06-29T02:33:03.146Z,3.47
2018-06-29T02:35:30.960Z,3.60
2018-06-29T02:37:58.782Z,3.50
2018-06-29T02:40:26.596Z,3.50
2018-06-29T02:42:54.402Z,3.70
2018-06-29T02:45:22.206Z,3.43
2018-06-29T02:47:50.040Z,3.83
2018-06-29T02:50:17.826Z,3.43
2018-06-29T02:52:45.638Z,3.80
2018-06-29T02:55:13.435Z,3.60
2018-06-29T02:57:41.254Z,3.70
2018-06-29T03:00:09.083Z,3.30
2018-06-29T03:02:36.877Z,3.50
2018-06-29T03:05:04.719Z,3.77
2018-06-29T03:07:32.522Z,3.47
2018-06-29T03:10:00.487Z,3.57
2018-06-29T03:12:34.806Z,3.13
2018-06-29T03:15:02.660Z,3.30
2018-06-29T03:17:30.454Z,3.73
2018-06-29T03:19:58.271Z,3.33
2018-06-29T03:22:26.091Z,3.53
2018-06-29T03:24:53.904Z,3.70
2018-06-29T03:27:21.706Z,3.23
2018-06-29T03:29:49.548Z,3.63
2018-06-29T03:32:17.373Z,3.80
2018-06-29T03:34:45.183Z,3.63
2018-06-29T03:37:13.033Z,4.13
2018-06-29T03:39:40.840Z,4.07
2018-06-29T03:42:08.703Z,4.13
2018-06-29T03:44:36.498Z,4.23
2018-06-29T03:47:04.335Z,3.77
2018-06-29T03:49:32.155Z,3.67
2018-06-29T03:51:59.942Z,3.93
2018-06-29T03:54:27.739Z,3.40
2018-06-29T03:56:55.562Z,3.60
2018-06-29T03:59:23.350Z,3.30
2018-06-29T04:01:51.163Z,4.20
2018-06-29T04:04:18.975Z,3.77
2018-06-29T04:06:46.793Z,3.50
2018-06-29T04:09:14.597Z,3.77
2018-06-29T04:11:42.439Z,3.50
2018-06-29T04:14:10.213Z,3.40
2018-06-29T04:16:38.424Z,3.50
2018-06-29T04:19:06.620Z,3.57
2018-06-29T04:21:34.688Z,3.40
2018-06-29T04:24:02.551Z,4.17
2018-06-29T04:26:30.741Z,3.90
2018-06-29T04:28:58.537Z,3.50
2018-06-29T04:31:26.337Z,3.63
2018-06-29T04:33:54.147Z,3.13
2018-06-29T04:36:22.087Z,3.93
2018-06-29T04:38:49.908Z,4.07
2018-06-29T04:41:17.718Z,4.00
2018-06-29T04:43:45.611Z,3.87
2018-06-29T04:46:13.398Z,3.53
2018-06-29T04:48:41.231Z,4.07
2018-06-29T04:51:09.026Z,3.73
2018-06-29T04:53:36.840Z,4.10
2018-06-29T04:56:04.673Z,3.70
2018-06-29T04:58:32.511Z,3.70
2018-06-29T05:01:00.903Z,3.67
2018-06-29T05:03:28.997Z,4.03
2018-06-29T05:05:56.834Z,4.17
2018-06-29T05:08:24.631Z,3.60
2018-06-29T05:10:52.479Z,3.93
2018-06-29T05:13:20.312Z,4.03
2018-06-29T05:15:48.131Z,4.07
2018-06-29T05:18:16.382Z,3.50
2018-06-29T05:23:22.529Z,3.20
2018-06-29T05:25:50.339Z,3.53
2018-06-29T05:28:18.134Z,3.40
2018-06-29T05:30:45.985Z,3.40
2018-06-29T05:33:13.779Z,3.50
2018-06-29T05:35:41.635Z,3.70
2018-06-29T05:38:09.428Z,3.30
2018-06-29T05:40:37.247Z,3.10
2018-06-29T05:43:05.070Z,3.20
2018-06-29T05:45:32.864Z,3.37
2018-06-29T05:48:00.679Z,3.30
2018-06-29T05:50:28.471Z,3.60
2018-06-29T05:52:58.603Z,3.10
2018-06-29T05:55:26.491Z,3.33
2018-06-29T05:57:54.318Z,3.23
2018-06-29T06:00:22.295Z,3.27
2018-06-29T06:02:50.127Z,3.60
2018-06-29T06:05:17.931Z,2.60
2018-06-29T06:07:45.787Z,2.93
2018-06-29T06:10:13.603Z,3.60
2018-06-29T06:12:41.406Z,3.20
2018-06-29T06:15:09.234Z,3.40
2018-06-29T06:17:37.042Z,3.30
2018-06-29T06:20:08.254Z,3.50
2018-06-29T06:22:36.076Z,3.40
2018-06-29T06:25:04.244Z,3.03
2018-06-29T06:27:32.174Z,3.10
2018-06-29T06:30:00.001Z,3.67
2018-06-29T06:32:27.795Z,3.33
2018-06-29T06:34:55.758Z,3.60
2018-06-29T06:37:23.533Z,2.80
2018-06-29T06:39:51.362Z,3.27
2018-06-29T06:42:19.170Z,3.00
2018-06-29T06:44:49.464Z,3.40
2018-06-29T06:47:17.390Z,3.13
2018-06-29T06:49:45.467Z,3.20
2018-06-29T06:52:13.284Z,3.17
2018-06-29T06:54:41.090Z,3.00
2018-06-29T06:57:08.902Z,3.17
2018-06-29T06:59:36.744Z,3.07
2018-06-29T07:02:04.546Z,3.33
2018-06-29T07:04:32.378Z,2.83
2018-06-29T07:07:00.163Z,3.10
2018-06-29T07:09:38.846Z,3.03
2018-06-29T07:12:13.420Z,2.80
2018-06-29T07:14:41.244Z,3.17
2018-06-29T07:17:16.054Z,2.77
2018-06-29T07:19:44.405Z,3.00
2018-06-29T07:22:19.268Z,3.00
2018-06-29T07:24:47.403Z,3.00
2018-06-29T07:27:16.683Z,2.63
2018-06-29T07:29:44.628Z,2.97
2018-06-29T07:32:12.598Z,3.00
2018-06-29T07:34:40.498Z,2.70
2018-06-29T07:37:08.646Z,2.50
2018-06-29T07:39:36.515Z,2.90
2018-06-29T07:42:04.519Z,2.90
2018-06-29T07:44:32.334Z,2.60
2018-06-29T07:47:00.193Z,2.73
2018-06-29T07:49:28.896Z,2.80
2018-06-29T07:52:00.302Z,2.60
2018-06-29T07:54:28.104Z,2.80
2018-06-29T07:56:55.919Z,2.63
2018-06-29T07:59:23.709Z,2.80
2018-06-29T08:01:51.548Z,2.83
2018-06-29T08:04:19.341Z,2.60
2018-06-29T08:06:47.158Z,2.73
2018-06-29T08:09:14.958Z,2.47
2018-06-29T08:11:42.786Z,2.30
2018-06-29T08:14:10.859Z,2.70
2018-06-29T08:16:38.647Z,2.03
2018-06-29T08:19:06.459Z,2.70
2018-06-29T08:21:34.259Z,2.50
2018-06-29T08:24:02.066Z,2.50
2018-06-29T08:26:29.879Z,2.33
2018-06-29T08:28:57.706Z,2.50
2018-06-29T08:31:25.509Z,2.60
2018-06-29T08:33:53.323Z,2.70
2018-06-29T08:36:21.154Z,2.53
2018-06-29T08:38:48.979Z,2.50
2018-06-29T08:41:16.806Z,2.73
2018-06-29T08:43:44.638Z,2.70
2018-06-29T08:46:12.459Z,2.80
2018-06-29T08:48:40.259Z,2.40
2018-06-29T08:51:08.162Z,2.13
2018-06-29T08:53:35.968Z,2.33
2018-06-29T08:56:03.809Z,2.40
2018-06-29T08:58:31.612Z,2.63
2018-06-29T09:00:59.428Z,2.50
2018-06-29T09:03:27.246Z,2.37
2018-06-29T09:05:55.073Z,2.17
2018-06-29T09:08:22.875Z,2.70
2018-06-29T09:10:50.720Z,2.40
2018-06-29T09:13:19.479Z,2.20
2018-06-29T09:15:47.755Z,2.27
2018-06-29T09:18:15.585Z,2.33
2018-06-29T09:20:43.460Z,2.13
2018-06-29T09:23:11.306Z,2.40
2018-06-29T09:25:39.445Z,2.40
2018-06-29T09:28:07.272Z,2.30
2018-06-29T09:30:35.392Z,2.77
2018-06-29T09:33:03.512Z,2.17
2018-06-29T09:35:31.320Z,2.40
2018-06-29T09:37:59.135Z,2.53
2018-06-29T09:40:26.935Z,2.87
2018-06-29T09:42:54.779Z,2.20
2018-06-29T09:45:22.605Z,2.27
2018-06-29T09:47:50.448Z,2.50
2018-06-29T09:50:18.238Z,2.80
2018-06-29T09:52:46.065Z,2.23
2018-06-29T09:55:13.917Z,2.57
2018-06-29T10:00:32.073Z,2.70
2018-06-29T10:03:02.179Z,3.07
2018-06-29T10:05:30.149Z,2.80
2018-06-29T10:07:59.300Z,2.77
2018-06-29T10:10:27.553Z,3.10
2018-06-29T10:12:55.375Z,3.10
2018-06-29T10:15:23.194Z,2.53
2018-06-29T10:17:53.019Z,3.13
2018-06-29T10:20:21.902Z,3.37
2018-06-29T10:25:40.963Z,2.90
2018-06-29T10:30:43.451Z,3.10
2018-06-29T10:33:11.260Z,3.10
2018-06-29T10:35:39.079Z,3.20
2018-06-29T10:38:07.177Z,3.10
2018-06-29T10:40:35.032Z,3.03
2018-06-29T10:43:03.361Z,2.80
2018-06-29T10:45:31.212Z,3.30
2018-06-29T10:47:59.086Z,2.93
2018-06-29T10:50:27.419Z,3.30
2018-06-29T10:52:56.169Z,2.60
2018-06-29T10:55:24.670Z,2.90
2018-06-29T10:57:52.504Z,3.13
2018-06-29T11:00:20.314Z,3.03
2018-06-29T11:02:48.145Z,2.80
2018-06-29T11:05:15.985Z,2.87
2018-06-29T11:07:43.873Z,3.20
2018-06-29T11:10:11.719Z,3.10
2018-06-29T11:12:39.514Z,2.97
2018-06-29T11:15:07.327Z,3.27
2018-06-29T11:17:35.133Z,2.80
2018-06-29T11:20:02.997Z,3.23
2018-06-29T11:22:30.831Z,3.60
2018-06-29T11:24:58.618Z,3.30
2018-06-29T11:27:26.476Z,4.20
2018-06-29T11:29:54.279Z,3.00
2018-06-29T11:32:22.152Z,2.80
2018-06-29T11:34:49.947Z,3.50
2018-06-29T11:37:17.760Z,2.60
2018-06-29T11:39:45.554Z,2.87
2018-06-29T11:42:13.383Z,3.30
2018-06-29T11:44:41.179Z,3.03
2018-06-29T11:47:09.002Z,3.00
2018-06-29T11:49:36.803Z,3.47
2018-06-29T11:52:04.643Z,3.10
2018-06-29T11:54:32.430Z,2.90
2018-06-29T11:57:00.239Z,2.90
2018-06-29T11:59:28.092Z,2.80
2018-06-29T12:01:55.894Z,2.40
2018-06-29T12:04:23.702Z,2.70
2018-06-29T12:06:51.499Z,3.17
2018-06-29T12:09:19.329Z,2.60
2018-06-29T12:11:47.135Z,2.90
2018-06-29T12:14:14.971Z,2.53
2018-06-29T12:16:42.767Z,2.37
2018-06-29T12:19:10.574Z,2.90
2018-06-29T12:21:38.378Z,2.90
2018-06-29T12:24:06.190Z,2.40
2018-06-29T12:26:34.011Z,2.50
2018-06-29T12:29:01.831Z,2.80
2018-06-29T12:31:29.702Z,2.67
2018-06-29T12:33:57.497Z,2.17
2018-06-29T12:36:25.339Z,2.87
2018-06-29T12:38:53.136Z,2.40
2018-06-29T12:41:21.354Z,2.00
2018-06-29T12:43:49.235Z,2.40
2018-06-29T12:46:18.855Z,2.70
2018-06-29T12:48:47.286Z,2.80
2018-06-29T12:51:15.750Z,2.40
2018-06-29T12:53:43.563Z,2.13
2018-06-29T12:56:11.587Z,2.30
2018-06-29T12:58:39.603Z,2.10
2018-06-29T13:01:07.878Z,2.27
2018-06-29T13:03:36.322Z,2.30
2018-06-29T13:06:04.440Z,2.47
2018-06-29T13:08:32.239Z,2.40
2018-06-29T13:11:00.377Z,2.47
2018-06-29T13:13:28.178Z,1.93
2018-06-29T13:15:56.755Z,2.20
2018-06-29T13:18:25.120Z,2.43
2018-06-29T13:20:53.974Z,2.20
2018-06-29T13:23:22.060Z,2.60
2018-06-29T13:25:49.855Z,2.20
2018-06-29T13:28:17.680Z,2.50
2018-06-29T13:30:45.524Z,2.10
2018-06-29T13:33:13.322Z,1.97
2018-06-29T13:35:41.161Z,2.07
2018-06-29T13:38:09.074Z,2.63
2018-06-29T13:40:36.890Z,2.50
2018-06-29T13:43:04.814Z,2.53
2018-06-29T13:45:33.262Z,2.30
2018-06-29T13:48:01.082Z,2.70
2018-06-29T13:50:28.871Z,2.07
2018-06-29T13:52:56.688Z,2.47
2018-06-29T13:55:24.474Z,2.23
2018-06-29T13:57:52.275Z,2.70
2018-06-29T14:00:20.066Z,2.70
2018-06-29T14:02:47.882Z,2.30
2018-06-29T14:05:15.700Z,2.00
2018-06-29T14:07:43.530Z,2.43
2018-06-29T14:10:11.326Z,1.90
2018-06-29T14:12:39.143Z,2.50
2018-06-29T14:15:06.938Z,1.87
2018-06-29T14:17:34.755Z,2.27
2018-06-29T14:20:02.598Z,2.20
2018-06-29T14:22:30.423Z,2.10
2018-06-29T14:24:58.234Z,2.80
2018-06-29T14:27:26.043Z,2.20
2018-06-29T14:29:53.874Z,2.93
2018-06-29T14:32:21.835Z,2.30
2018-06-29T14:34:49.637Z,2.20
2018-06-29T14:37:17.422Z,2.40
2018-06-29T14:39:45.231Z,2.33
2018-06-29T14:42:13.193Z,2.43
2018-06-29T14:44:40.994Z,2.30
2018-06-29T14:47:08.770Z,2.77
2018-06-29T14:49:36.582Z,2.57
2018-06-29T14:52:04.370Z,2.67
2018-06-29T14:54:32.186Z,2.70
2018-06-29T14:57:06.530Z,2.30
2018-06-29T14:59:34.338Z,2.17
2018-06-29T15:02:02.146Z,2.93
2018-06-29T15:04:29.946Z,2.30
2018-06-29T15:06:57.731Z,2.10
2018-06-29T15:09:25.600Z,2.77
2018-06-29T15:11:53.362Z,2.07
2018-06-29T15:14:21.151Z,1.80
2018-06-29T15:16:48.959Z,2.93
2018-06-29T15:19:16.847Z,2.53
2018-06-29T15:21:44.714Z,2.30
2018-06-29T15:24:12.442Z,2.27
2018-06-29T15:26:40.338Z,2.47
2018-06-29T15:29:08.166Z,2.37
2018-06-29T15:31:36.005Z,2.57
2018-06-29T15:34:03.787Z,2.50
2018-06-29T15:36:31.600Z,2.30
2018-06-29T15:38:59.394Z,2.50
2018-06-29T15:41:27.207Z,2.43
2018-06-29T15:43:55.004Z,2.40
2018-06-29T15:46:22.811Z,2.70
2018-06-29T15:48:50.598Z,2.63
2018-06-29T15:51:18.392Z,2.60
2018-06-29T15:53:46.208Z,2.33
2018-06-29T15:56:14.159Z,2.50
2018-06-29T15:58:41.967Z,2.37
2018-06-29T16:01:09.782Z,2.10
2018-06-29T16:03:37.766Z,2.60
2018-06-29T16:06:05.597Z,2.20
2018-06-29T16:08:33.415Z,2.30
2018-06-29T16:11:01.232Z,2.23
2018-06-29T16:13:29.035Z,2.23
2018-06-29T16:15:56.836Z,2.30
2018-06-29T16:18:24.658Z,2.60
2018-06-29T16:20:52.458Z,2.27
2018-06-29T16:23:20.267Z,2.50
2018-06-29T16:25:48.088Z,2.20
2018-06-29T16:28:15.886Z,2.60
2018-06-29T16:30:43.715Z,2.60
2018-06-29T16:33:11.523Z,2.20
2018-06-29T16:35:39.318Z,2.47
2018-06-29T16:38:07.467Z,2.30
2018-06-29T16:40:35.299Z,2.20
2018-06-29T16:43:03.090Z,2.30
2018-06-29T16:45:30.898Z,1.90
2018-06-29T16:47:58.699Z,2.20
2018-06-29T16:50:26.526Z,2.27
2018-06-29T16:52:54.591Z,1.80
2018-06-29T16:55:22.386Z,1.80
2018-06-29T16:57:50.347Z,2.13
2018-06-29T17:00:18.154Z,2.23
2018-06-29T17:02:45.943Z,2.13
2018-06-29T17:05:13.758Z,1.90
2018-06-29T17:07:41.578Z,1.90
2018-06-29T17:10:09.404Z,2.10
2018-06-29T17:12:37.302Z,2.17
2018-06-29T17:15:05.512Z,2.00
2018-06-29T17:17:33.295Z,1.90
2018-06-29T17:20:01.118Z,2.07
2018-06-29T17:22:28.907Z,2.20
2018-06-29T17:24:56.794Z,2.00
2018-06-29T17:27:24.554Z,1.87
2018-06-29T17:29:52.367Z,2.20
2018-06-29T17:32:20.284Z,2.20
2018-06-29T17:34:48.070Z,2.00
2018-06-29T17:37:15.886Z,1.80
2018-06-29T17:39:43.754Z,2.50
2018-06-29T17:42:11.571Z,2.17
2018-06-29T17:44:39.380Z,2.23
2018-06-29T17:47:07.185Z,1.73
2018-06-29T17:49:34.991Z,2.00
2018-06-29T17:52:02.834Z,1.90
2018-06-29T17:54:30.619Z,2.00
2018-06-29T17:56:58.676Z,1.90
2018-06-29T17:59:26.466Z,2.03
2018-06-29T18:01:54.299Z,1.70
2018-06-29T18:04:22.929Z,1.73
2018-06-29T18:06:50.749Z,1.97
2018-06-29T18:09:18.554Z,2.13
2018-06-29T18:11:46.357Z,2.30
2018-06-29T18:14:14.163Z,2.10
2018-06-29T18:16:42.006Z,2.40
2018-06-29T18:19:09.784Z,2.10
2018-06-29T18:21:37.587Z,2.80
2018-06-29T18:24:05.419Z,1.93
2018-06-29T18:26:33.218Z,2.00
2018-06-29T18:29:01.041Z,2.40
2018-06-29T18:31:28.837Z,2.10
2018-06-29T18:33:56.638Z,2.40
2018-06-29T18:36:24.442Z,2.07
2018-06-29T18:38:52.250Z,2.10
2018-06-29T18:41:20.052Z,2.00
2018-06-29T18:43:47.862Z,2.17
2018-06-29T18:46:15.666Z,2.30
2018-06-29T18:48:43.451Z,1.87
2018-06-29T18:51:11.571Z,2.20
2018-06-29T18:53:39.378Z,2.60
2018-06-29T18:56:07.253Z,2.07
2018-06-29T18:58:35.055Z,2.40
2018-06-29T19:01:02.939Z,2.23
2018-06-29T19:03:30.742Z,1.97
2018-06-29T19:05:58.598Z,2.00
2018-06-29T19:08:26.401Z,2.20
2018-06-29T19:10:54.254Z,2.50
2018-06-29T19:13:22.028Z,2.37
2018-06-29T19:15:49.849Z,2.50
2018-06-29T19:18:17.656Z,2.47
2018-06-29T19:20:45.466Z,2.33
2018-06-29T19:23:13.270Z,2.17
2018-06-29T19:25:41.079Z,2.60
2018-06-29T19:28:08.890Z,2.13
2018-06-29T19:30:36.885Z,2.07
2018-06-29T19:33:04.870Z,2.80
2018-06-29T19:35:32.654Z,2.77
2018-06-29T19:38:00.475Z,2.87
2018-06-29T19:40:28.263Z,2.80
2018-06-29T19:42:56.058Z,2.97
2018-06-29T19:45:23.909Z,2.90
2018-06-29T19:47:51.667Z,2.67
2018-06-29T19:50:19.454Z,2.67
2018-06-29T19:52:47.266Z,3.20
2018-06-29T19:55:15.051Z,3.20
2018-06-29T19:57:42.846Z,2.93
2018-06-29T20:00:10.638Z,3.13
2018-06-29T20:02:38.451Z,3.00
2018-06-29T20:05:06.256Z,2.87
2018-06-29T20:07:34.026Z,2.73
2018-06-29T20:10:01.852Z,3.10
2018-06-29T20:12:30.670Z,3.20
2018-06-29T20:14:58.875Z,4.67
2018-06-29T20:17:26.685Z,3.87
2018-06-29T20:19:54.987Z,3.70
2018-06-29T20:22:22.788Z,2.60
2018-06-29T20:24:50.603Z,3.20
2018-06-29T20:27:18.402Z,2.87
2018-06-29T20:29:46.229Z,2.77
2018-06-29T20:32:14.135Z,2.90
2018-06-29T20:34:41.938Z,3.20
2018-06-29T20:37:09.742Z,3.40
2018-06-29T20:39:37.550Z,2.70
2018-06-29T20:42:05.382Z,3.20
2018-06-29T20:44:33.225Z,3.30
2018-06-29T20:47:01.006Z,3.03
2018-06-29T20:49:28.836Z,2.90
2018-06-29T20:51:56.638Z,3.33
2018-06-29T20:54:24.430Z,2.80
2018-06-29T20:56:52.249Z,3.10
2018-06-29T20:59:20.047Z,3.10
2018-06-29T21:01:47.892Z,3.13
2018-06-29T21:04:15.690Z,2.80
2018-06-29T21:06:43.494Z,3.03
2018-06-29T21:09:11.922Z,3.30
2018-06-29T21:11:39.919Z,3.40
2018-06-29T21:14:07.878Z,3.10
2018-06-29T21:16:35.700Z,2.93
2018-06-29T21:19:03.507Z,3.47
2018-06-29T21:21:31.626Z,4.10
2018-06-29T21:23:59.457Z,2.90
2018-06-29T21:26:27.269Z,3.17
2018-06-29T21:28:55.071Z,3.40
2018-06-29T21:31:22.906Z,3.17
2018-06-29T21:33:50.747Z,3.00
2018-06-29T21:36:18.526Z,3.00
2018-06-29T21:38:46.332Z,3.30
2018-06-29T21:41:14.127Z,3.13
2018-06-29T21:43:41.942Z,3.10
2018-06-29T21:46:09.731Z,2.97
2018-06-29T21:48:37.550Z,2.87
2018-06-29T21:51:05.344Z,2.63
2018-06-29T21:53:33.168Z,3.07
2018-06-29T21:56:00.975Z,3.30
2018-06-29T21:58:28.794Z,3.17
2018-06-29T22:00:56.606Z,2.80
2018-06-29T22:03:24.422Z,3.07
2018-06-29T22:05:52.254Z,2.80
2018-06-29T22:08:20.079Z,2.43
2018-06-29T22:10:47.875Z,2.93
2018-06-29T22:13:15.704Z,2.93
2018-06-29T22:15:43.490Z,2.87
2018-06-29T22:18:11.334Z,2.30
2018-06-29T22:20:39.147Z,2.73
2018-06-29T22:23:06.971Z,2.73
2018-06-29T22:25:34.761Z,2.70
2018-06-29T22:28:02.661Z,2.73
2018-06-29T22:30:30.382Z,2.37
2018-06-29T22:32:58.187Z,2.47
2018-06-29T22:35:25.977Z,2.70
2018-06-29T22:37:53.773Z,2.53
2018-06-29T22:40:21.578Z,3.10
2018-06-29T22:42:49.374Z,2.83
2018-06-29T22:45:17.187Z,2.77
2018-06-29T22:47:44.982Z,3.20
2018-06-29T22:50:12.790Z,3.30
2018-06-29T22:52:40.587Z,3.10
2018-06-29T22:55:08.390Z,2.50
2018-06-29T22:57:36.191Z,2.80
2018-06-29T23:00:04.575Z,2.90
2018-06-29T23:02:32.154Z,2.77
2018-06-29T23:04:59.970Z,3.10
2018-06-29T23:07:27.757Z,3.30
2018-06-29T23:09:55.571Z,2.97
2018-06-29T23:12:23.367Z,2.63
2018-06-29T23:14:51.175Z,2.67
2018-06-29T23:17:18.970Z,3.13
2018-06-29T23:19:46.787Z,2.53
2018-06-29T23:22:14.579Z,2.67
2018-06-29T23:24:42.367Z,2.83
2018-06-29T23:27:11.025Z,3.00
2018-06-29T23:29:38.895Z,2.77
2018-06-29T23:32:06.706Z,2.80
2018-06-29T23:34:34.526Z,3.10
2018-06-29T23:37:02.335Z,3.07
2018-06-29T23:39:30.160Z,2.83
2018-06-29T23:41:57.967Z,2.90
2018-06-29T23:44:25.759Z,2.60
2018-06-29T23:46:53.576Z,3.10
2018-06-29T23:49:21.358Z,2.63
2018-06-29T23:51:49.171Z,3.00
2018-06-29T23:54:16.961Z,2.20
2018-06-29T23:56:44.792Z,2.70
2018-06-29T23:59:12.644Z,2.50
